Map

Track Data

SID SEASON NUMBER BASIN SUBBASIN NAME ISO_TIME NATURE LAT LON WMO_WIND WMO_PRES WMO_AGENCY TRACK_TYPE DIST2LAND LANDFALL IFLAG USA_AGENCY USA_ATCF_ID USA_LAT USA_LON USA_RECORD USA_STATUS USA_WIND USA_PRES USA_SSHS USA_R34_NE USA_R34_SE USA_R34_SW USA_R34_NW USA_R50_NE USA_R50_SE USA_R50_SW USA_R50_NW USA_R64_NE USA_R64_SE USA_R64_SW USA_R64_NW USA_POCI USA_ROCI USA_RMW USA_EYE TOKYO_LAT TOKYO_LON TOKYO_GRADE TOKYO_WIND TOKYO_PRES TOKYO_R50_DIR TOKYO_R50_LONG TOKYO_R50_SHORT TOKYO_R30_DIR TOKYO_R30_LONG TOKYO_R30_SHORT TOKYO_LAND CMA_LAT CMA_LON CMA_CAT CMA_WIND CMA_PRES HKO_LAT HKO_LON HKO_CAT HKO_WIND HKO_PRES NEWDELHI_LAT NEWDELHI_LON NEWDELHI_GRADE NEWDELHI_WIND NEWDELHI_PRES NEWDELHI_CI NEWDELHI_DP NEWDELHI_POCI REUNION_LAT REUNION_LON REUNION_TYPE REUNION_WIND REUNION_PRES REUNION_TNUM REUNION_CI REUNION_RMW REUNION_R34_NE REUNION_R34_SE REUNION_R34_SW REUNION_R34_NW REUNION_R50_NE REUNION_R50_SE REUNION_R50_SW REUNION_R50_NW REUNION_R64_NE REUNION_R64_SE REUNION_R64_SW REUNION_R64_NW BOM_LAT BOM_LON BOM_TYPE BOM_WIND BOM_PRES BOM_TNUM BOM_CI BOM_RMW BOM_R34_NE BOM_R34_SE BOM_R34_SW BOM_R34_NW BOM_R50_NE BOM_R50_SE BOM_R50_SW BOM_R50_NW BOM_R64_NE BOM_R64_SE BOM_R64_SW BOM_R64_NW BOM_ROCI BOM_POCI BOM_EYE BOM_POS_METHOD BOM_PRES_METHOD NADI_LAT NADI_LON NADI_CAT NADI_WIND NADI_PRES WELLINGTON_LAT WELLINGTON_LON WELLINGTON_WIND WELLINGTON_PRES DS824_LAT DS824_LON DS824_STAGE DS824_WIND DS824_PRES TD9636_LAT TD9636_LON TD9636_STAGE TD9636_WIND TD9636_PRES TD9635_LAT TD9635_LON TD9635_WIND TD9635_PRES TD9635_ROCI NEUMANN_LAT NEUMANN_LON NEUMANN_CLASS NEUMANN_WIND NEUMANN_PRES MLC_LAT MLC_LON MLC_CLASS MLC_WIND MLC_PRES USA_GUST BOM_GUST BOM_GUST_PER REUNION_GUST REUNION_GUST_PER USA_SEAHGT USA_SEARAD_NE USA_SEARAD_SE USA_SEARAD_SW USA_SEARAD_NW STORM_SPEED STORM_DIR
1901214N33322 1901 23 NA NA NOT_NAMED 1901-08-02 00:00:00 TS 32.6000 -38.4000 25 hurdat_atl main 1999 1993 O_____________ hurdat_atl AL041901 32.6000 -38.4000 TD 25 -1 6 242
1901214N33322 1901 23 NA NA NOT_NAMED 1901-08-02 03:00:00 TS 32.4477 -38.7353 main 2002 1986 P_____________ AL041901 32.4477 -38.7353 TD 25 -1 7 243
1901214N33322 1901 23 NA NA NOT_NAMED 1901-08-02 06:00:00 TS 32.3000 -39.1000 25 hurdat_atl main 1991 1980 O_____________ hurdat_atl AL041901 32.3000 -39.1000 TD 25 -1 7 246
1901214N33322 1901 23 NA NA NOT_NAMED 1901-08-02 09:00:00 TS 32.1573 -39.5197 main 1980 1974 P_____________ AL041901 32.1573 -39.5197 TD 25 -1 8 248
1901214N33322 1901 23 NA NA NOT_NAMED 1901-08-02 12:00:00 TS 32.0000 -40.0000 25 hurdat_atl main 1974 1965 O_____________ hurdat_atl AL041901 32.0000 -40.0000 TD 25 -1 9 248
1901214N33322 1901 23 NA NA NOT_NAMED 1901-08-02 15:00:00 TS 31.8148 -40.5273 main 1970 1957 P_____________ AL041901 31.8148 -40.5273 TD 25 -1 10 247
1901214N33322 1901 23 NA NA NOT_NAMED 1901-08-02 18:00:00 TS 31.6000 -41.1000 25 hurdat_atl main 1962 1958 O_____________ hurdat_atl AL041901 31.6000 -41.1000 TD 25 -1 11 245
1901214N33322 1901 23 NA NA NOT_NAMED 1901-08-02 21:00:00 TS 31.3646 -41.6771 main 1956 1955 P_____________ AL041901 31.3646 -41.6771 TD 25 -1 11 244
1901214N33322 1901 23 NA NA NOT_NAMED 1901-08-03 00:00:00 TS 31.1000 -42.3000 25 hurdat_atl main 1961 1957 O_____________ hurdat_atl AL041901 31.1000 -42.3000 TD 25 -1 13 243
1901214N33322 1901 23 NA NA NOT_NAMED 1901-08-03 03:00:00 TS 30.8000 -42.9926 main 1964 1960 P_____________ AL041901 30.8000 -42.9926 TD 25 -1 13 243
1901214N33322 1901 23 NA NA NOT_NAMED 1901-08-03 06:00:00 TS 30.5000 -43.7000 25 hurdat_atl main 1969 1965 O_____________ hurdat_atl AL041901 30.5000 -43.7000 TD 25 -1 13 245
1901214N33322 1901 23 NA NA NOT_NAMED 1901-08-03 09:00:00 TS 30.2571 -44.3567 main 1966 1966 P_____________ AL041901 30.2571 -44.3567 TD 25 -1 12 246
1901214N33322 1901 23 NA NA NOT_NAMED 1901-08-03 12:00:00 TS 30.0000 -45.0000 25 hurdat_atl main 1978 1975 O_____________ hurdat_atl AL041901 30.0000 -45.0000 TD 25 -1 13 243
1901214N33322 1901 23 NA NA NOT_NAMED 1901-08-03 15:00:00 TS 29.6650 -45.6726 main 1989 1989 P_____________ AL041901 29.6650 -45.6726 TD 25 -1 13 238
1901214N33322 1901 23 NA NA NOT_NAMED 1901-08-03 18:00:00 TS 29.3000 -46.3000 25 hurdat_atl main 2016 2014 O_____________ hurdat_atl AL041901 29.3000 -46.3000 TD 25 -1 12 234
1901214N33322 1901 23 NA NA NOT_NAMED 1901-08-03 21:00:00 TS 28.9640 -46.7838 main 2036 2036 P_____________ AL041901 28.9640 -46.7838 TD 27 -1 11 231
1901214N33322 1901 23 NA NA NOT_NAMED 1901-08-04 00:00:00 TS 28.6000 -47.3000 30 hurdat_atl main 2068 2066 O_____________ hurdat_atl AL041901 28.6000 -47.3000 TD 30 -1 14 233
1901214N33322 1901 23 NA NA NOT_NAMED 1901-08-04 03:00:00 TS 28.1505 -48.0357 main 2098 2004 P_____________ AL041901 28.1505 -48.0357 TD 30 -1 16 236
1901214N33322 1901 23 NA NA NOT_NAMED 1901-08-04 06:00:00 TS 27.7000 -48.8000 30 hurdat_atl main 2004 1936 O_____________ hurdat_atl AL041901 27.7000 -48.8000 TD 30 -1 15 236
1901214N33322 1901 23 NA NA NOT_NAMED 1901-08-04 09:00:00 TS 27.3340 -49.3913 main 1931 1863 P_____________ AL041901 27.3340 -49.3913 TD 30 -1 13 237
1901214N33322 1901 23 NA NA NOT_NAMED 1901-08-04 12:00:00 TS 27.0000 -50.0000 30 hurdat_atl main 1863 1786 O_____________ hurdat_atl AL041901 27.0000 -50.0000 TD 30 -1 14 241
1901214N33322 1901 23 NA NA NOT_NAMED 1901-08-04 15:00:00 TS 26.6500 -50.7698 main 1777 1686 P_____________ AL041901 26.6500 -50.7698 TD 30 -1 16 244
1901214N33322 1901 23 NA NA NOT_NAMED 1901-08-04 18:00:00 TS 26.3000 -51.6000 30 hurdat_atl main 1686 1600 O_____________ hurdat_atl AL041901 26.3000 -51.6000 TD 30 -1 16 244
1901214N33322 1901 23 NA NA NOT_NAMED 1901-08-04 21:00:00 TS 25.9496 -52.3995 main 1595 1509 P_____________ AL041901 25.9496 -52.3995 TD 30 -1 16 244
1901214N33322 1901 23 NA NA NOT_NAMED 1901-08-05 00:00:00 TS 25.6000 -53.2000 30 hurdat_atl main 1509 1425 O_____________ hurdat_atl AL041901 25.6000 -53.2000 TD 30 -1 16 243
1901214N33322 1901 23 NA NA NOT_NAMED 1901-08-05 03:00:00 TS 25.2270 -53.9924 main 1417 1330 P_____________ AL041901 25.2270 -53.9924 TD 30 -1 16 244
1901214N33322 1901 23 NA NA NOT_NAMED 1901-08-05 06:00:00 TS 24.9000 -54.8000 30 hurdat_atl main 1330 1250 O_____________ hurdat_atl AL041901 24.9000 -54.8000 TD 30 -1 16 250
1901214N33322 1901 23 NA NA NOT_NAMED 1901-08-05 09:00:00 TS 24.6700 -55.6645 main 1241 1162 P_____________ AL041901 24.6700 -55.6645 TD 30 -1 16 255
1901214N33322 1901 23 NA NA NOT_NAMED 1901-08-05 12:00:00 TS 24.5000 -56.5000 30 hurdat_atl main 1162 1097 O_____________ hurdat_atl AL041901 24.5000 -56.5000 TD 30 -1 15 257
1901214N33322 1901 23 NA NA NOT_NAMED 1901-08-05 15:00:00 TS 24.3419 -57.2221 main 1091 1027 P_____________ AL041901 24.3419 -57.2221 TD 30 -1 13 257
1901214N33322 1901 23 NA NA NOT_NAMED 1901-08-05 18:00:00 TS 24.2000 -57.9000 30 hurdat_atl main 1027 965 O_____________ hurdat_atl AL041901 24.2000 -57.9000 TD 30 -1 13 257
1901214N33322 1901 23 NA NA NOT_NAMED 1901-08-05 21:00:00 TS 24.0421 -58.5924 main 958 896 P_____________ AL041901 24.0421 -58.5924 TD 30 -1 13 257
1901214N33322 1901 23 NA NA NOT_NAMED 1901-08-06 00:00:00 TS 23.9000 -59.3000 30 hurdat_atl main 896 837 O_____________ hurdat_atl AL041901 23.9000 -59.3000 TD 30 -1 14 259
1901214N33322 1901 23 NA NA NOT_NAMED 1901-08-06 03:00:00 TS 23.7772 -60.0425 main 837 773 P_____________ AL041901 23.7772 -60.0425 TD 30 -1 14 262
1901214N33322 1901 23 NA NA NOT_NAMED 1901-08-06 06:00:00 TS 23.7000 -60.8000 30 hurdat_atl main 773 729 O_____________ hurdat_atl AL041901 23.7000 -60.8000 TD 30 -1 14 266
1901214N33322 1901 23 NA NA NOT_NAMED 1901-08-06 09:00:00 TS 23.6695 -61.5425 main 729 684 P_____________ AL041901 23.6695 -61.5425 TD 30 -1 14 270
1901214N33322 1901 23 NA NA NOT_NAMED 1901-08-06 12:00:00 TS 23.7000 -62.3000 30 hurdat_atl main 684 655 O_____________ hurdat_atl AL041901 23.7000 -62.3000 TD 30 -1 14 274
1901214N33322 1901 23 NA NA NOT_NAMED 1901-08-06 15:00:00 TS 23.7770 -63.0776 main 657 638 P_____________ AL041901 23.7770 -63.0776 TD 30 -1 15 278
1901214N33322 1901 23 NA NA NOT_NAMED 1901-08-06 18:00:00 TS 23.9000 -63.9000 30 hurdat_atl main 639 631 O_____________ hurdat_atl AL041901 23.9000 -63.9000 TD 30 -1 16 279
1901214N33322 1901 23 NA NA NOT_NAMED 1901-08-06 21:00:00 TS 24.0347 -64.7852 main 631 631 P_____________ AL041901 24.0347 -64.7852 TD 30 -1 17 280
1901214N33322 1901 23 NA NA NOT_NAMED 1901-08-07 00:00:00 TS 24.2000 -65.7000 30 hurdat_atl main 648 634 O_____________ hurdat_atl AL041901 24.2000 -65.7000 TD 30 -1 17 282
1901214N33322 1901 23 NA NA NOT_NAMED 1901-08-07 03:00:00 TS 24.3923 -66.6225 main 634 614 P_____________ AL041901 24.3923 -66.6225 TD 30 -1 17 284
1901214N33322 1901 23 NA NA NOT_NAMED 1901-08-07 06:00:00 TS 24.6000 -67.5000 30 hurdat_atl main 615 606 O_____________ hurdat_atl AL041901 24.6000 -67.5000 TD 30 -1 16 285
1901214N33322 1901 23 NA NA NOT_NAMED 1901-08-07 09:00:00 TS 24.8071 -68.2951 main 606 589 P_____________ AL041901 24.8071 -68.2951 TD 30 -1 14 286
1901214N33322 1901 23 NA NA NOT_NAMED 1901-08-07 12:00:00 TS 25.0000 -69.0000 30 hurdat_atl main 589 563 O_____________ hurdat_atl AL041901 25.0000 -69.0000 TD 30 -1 12 287
1901214N33322 1901 23 NA NA NOT_NAMED 1901-08-07 15:00:00 TS 25.1643 -69.6078 main 566 540 P_____________ AL041901 25.1643 -69.6078 TD 30 -1 11 285
1901214N33322 1901 23 NA NA NOT_NAMED 1901-08-07 18:00:00 TS 25.3000 -70.2000 30 hurdat_atl main 540 516 O_____________ hurdat_atl AL041901 25.3000 -70.2000 TD 30 -1 12 282
1901214N33322 1901 23 NA NA NOT_NAMED 1901-08-07 21:00:00 TS 25.4227 -70.9074 main 516 501 P_____________ AL041901 25.4227 -70.9074 TD 30 -1 13 279
1901214N33322 1901 23 NA NA NOT_NAMED 1901-08-08 00:00:00 TS 25.5000 -71.6000 30 hurdat_atl main 501 489 O_____________ hurdat_atl AL041901 25.5000 -71.6000 TD 30 -1 11 275
1901214N33322 1901 23 NA NA NOT_NAMED 1901-08-08 03:00:00 TS 25.5143 -72.1577 main 487 481 P_____________ AL041901 25.5143 -72.1577 TD 30 -1 10 270
1901214N33322 1901 23 NA NA NOT_NAMED 1901-08-08 06:00:00 TS 25.5000 -72.7000 30 hurdat_atl main 481 447 O_____________ hurdat_atl AL041901 25.5000 -72.7000 TD 30 -1 11 270
1901214N33322 1901 23 NA NA NOT_NAMED 1901-08-08 09:00:00 TS 25.5080 -73.3949 main 447 388 P_____________ AL041901 25.5080 -73.3949 TD 30 -1 12 270
1901214N33322 1901 23 NA NA NOT_NAMED 1901-08-08 12:00:00 TS 25.5000 -74.0000 30 hurdat_atl main 388 360 O_____________ hurdat_atl AL041901 25.5000 -74.0000 TD 30 -1 8 268
1901214N33322 1901 23 NA NA NOT_NAMED 1901-08-08 15:00:00 TS 25.4795 -74.3099 main 360 337 P_____________ AL041901 25.4795 -74.3099 TD 30 -1 5 257
1901214N33322 1901 23 NA NA NOT_NAMED 1901-08-08 18:00:00 TS 25.4000 -74.5000 30 hurdat_atl main 337 312 O_____________ hurdat_atl AL041901 25.4000 -74.5000 TD 30 -1 5 234
1901214N33322 1901 23 NA NA NOT_NAMED 1901-08-08 21:00:00 TS 25.1924 -74.7427 main 312 278 P_____________ AL041901 25.1924 -74.7427 TD 32 -1 6 229
1901214N33322 1901 23 NA NA NOT_NAMED 1901-08-09 00:00:00 TS 25.0000 -75.0000 35 hurdat_atl main 278 248 O_____________ hurdat_atl AL041901 25.0000 -75.0000 TS 35 0 5 244
1901214N33322 1901 23 NA NA NOT_NAMED 1901-08-09 03:00:00 TS 24.9549 -75.2775 main 248 219 P_____________ AL041901 24.9549 -75.2775 TS 35 0 5 270
1901214N33322 1901 23 NA NA NOT_NAMED 1901-08-09 06:00:00 TS 25.0000 -75.6000 35 hurdat_atl main 219 184 O_____________ hurdat_atl AL041901 25.0000 -75.6000 TS 35 0 7 282
1901214N33322 1901 23 NA NA NOT_NAMED 1901-08-09 09:00:00 TS 25.0926 -75.9923 main 184 151 P_____________ AL041901 25.0926 -75.9923 TS 37 0 8 285
1901214N33322 1901 23 NA NA NOT_NAMED 1901-08-09 12:00:00 TS 25.2000 -76.4000 40 hurdat_atl main 151 124 O_____________ hurdat_atl AL041901 25.2000 -76.4000 TS 40 0 7 283
1901214N33322 1901 23 NA NA NOT_NAMED 1901-08-09 15:00:00 TS 25.2574 -76.7576 main 119 92 P_____________ AL041901 25.2574 -76.7576 TS 40 0 6 279
1901214N33322 1901 23 NA NA NOT_NAMED 1901-08-09 18:00:00 TS 25.3000 -77.1000 40 hurdat_atl main 92 64 O_____________ hurdat_atl AL041901 25.3000 -77.1000 TS 40 0 6 278
1901214N33322 1901 23 NA NA NOT_NAMED 1901-08-09 21:00:00 TS 25.3425 -77.4576 main 55 39 P_____________ AL041901 25.3425 -77.4576 TS 40 0 6 279
1901214N33322 1901 23 NA NA NOT_NAMED 1901-08-10 00:00:00 TS 25.4000 -77.8000 40 hurdat_atl main 39 33 O_____________ hurdat_atl AL041901 25.4000 -77.8000 TS 40 0 6 284
1901214N33322 1901 23 NA NA NOT_NAMED 1901-08-10 03:00:00 TS 25.4924 -78.1075 main 44 44 P_____________ AL041901 25.4924 -78.1075 TS 40 0 6 290
1901214N33322 1901 23 NA NA NOT_NAMED 1901-08-10 06:00:00 TS 25.6000 -78.4000 40 hurdat_atl main 63 63 O_____________ hurdat_atl AL041901 25.6000 -78.4000 TS 40 0 6 291
1901214N33322 1901 23 NA NA NOT_NAMED 1901-08-10 09:00:00 TS 25.6924 -78.7001 main 90 90 P_____________ AL041901 25.6924 -78.7001 TS 40 0 6 290
1901214N33322 1901 23 NA NA NOT_NAMED 1901-08-10 12:00:00 TS 25.8000 -79.0000 40 hurdat_atl main 110 79 O_____________ hurdat_atl AL041901 25.8000 -79.0000 TS 40 0 6 295
1901214N33322 1901 23 NA NA NOT_NAMED 1901-08-10 15:00:00 TS 25.9428 -79.2864 main 79 49 P_____________ AL041901 25.9428 -79.2864 TS 40 0 6 299
1901214N33322 1901 23 NA NA NOT_NAMED 1901-08-10 18:00:00 TS 26.1000 -79.6000 40 hurdat_atl main 49 19 O_____________ hurdat_atl AL041901 26.1000 -79.6000 TS 40 0 7 297
1901214N33322 1901 23 NA NA NOT_NAMED 1901-08-10 21:00:00 TS 26.2500 -79.9623 main 9 0 P_____________ AL041901 26.2500 -79.9623 TS 40 0 7 294
1901214N33322 1901 23 NA NA NOT_NAMED 1901-08-10 22:00:00 TS 26.3000 -80.1000 40 hurdat_atl main 0 0 O_____________ hurdat_atl AL041901 26.3000 -80.1000 L TS 40 0 8 291
1901214N33322 1901 23 NA NA NOT_NAMED 1901-08-11 00:00:00 TS 26.4000 -80.4000 35 hurdat_atl main 0 0 O_____________ hurdat_atl AL041901 26.4000 -80.4000 TS 35 0 9 291
1901214N33322 1901 23 NA NA NOT_NAMED 1901-08-11 03:00:00 TS 26.5564 -80.8565 main 0 0 P_____________ AL041901 26.5564 -80.8565 TS 35 0 9 290
1901214N33322 1901 23 NA NA NOT_NAMED 1901-08-11 06:00:00 TS 26.7000 -81.3000 35 hurdat_atl main 0 0 O_____________ hurdat_atl AL041901 26.7000 -81.3000 TS 35 0 8 288
1901214N33322 1901 23 NA NA NOT_NAMED 1901-08-11 09:00:00 TS 26.8149 -81.7226 main 0 0 P_____________ AL041901 26.8149 -81.7226 TS 37 0 7 286
1901214N33322 1901 23 NA GM NOT_NAMED 1901-08-11 12:00:00 TS 26.9000 -82.1000 40 hurdat_atl main 0 0 O_____________ hurdat_atl AL041901 26.9000 -82.1000 TS 40 0 6 282
1901214N33322 1901 23 NA GM NOT_NAMED 1901-08-11 15:00:00 TS 26.9499 -82.4227 main 9 9 P_____________ AL041901 26.9499 -82.4227 TS 42 0 5 281
1901214N33322 1901 23 NA GM NOT_NAMED 1901-08-11 18:00:00 TS 27.0000 -82.7000 45 hurdat_atl main 29 29 O_____________ hurdat_atl AL041901 27.0000 -82.7000 TS 45 0 5 288
1901214N33322 1901 23 NA GM NOT_NAMED 1901-08-11 21:00:00 TS 27.0999 -82.9575 main 45 45 P_____________ AL041901 27.0999 -82.9575 TS 47 0 5 294
1901214N33322 1901 23 NA GM NOT_NAMED 1901-08-12 00:00:00 TS 27.2000 -83.2000 50 hurdat_atl main 60 60 O_____________ hurdat_atl AL041901 27.2000 -83.2000 TS 50 0 5 290
1901214N33322 1901 23 NA GM NOT_NAMED 1901-08-12 03:00:00 TS 27.2575 -83.4501 main 88 88 P_____________ AL041901 27.2575 -83.4501 TS 52 0 5 283
1901214N33322 1901 23 NA GM NOT_NAMED 1901-08-12 06:00:00 TS 27.3000 -83.7000 55 hurdat_atl main 103 103 O_____________ hurdat_atl AL041901 27.3000 -83.7000 TS 55 0 4 283
1901214N33322 1901 23 NA GM NOT_NAMED 1901-08-12 09:00:00 TS 27.3574 -83.9425 main 113 113 P_____________ AL041901 27.3574 -83.9425 TS 60 0 5 283
1901214N33322 1901 23 NA GM NOT_NAMED 1901-08-12 12:00:00 TS 27.4000 -84.2000 65 hurdat_atl main 139 139 O_____________ hurdat_atl AL041901 27.4000 -84.2000 HU 65 1 5 275
1901214N33322 1901 23 NA GM NOT_NAMED 1901-08-12 15:00:00 TS 27.4000 -84.4926 main 167 167 P_____________ AL041901 27.4000 -84.4926 HU 67 1 5 270
1901214N33322 1901 23 NA GM NOT_NAMED 1901-08-12 18:00:00 TS 27.4000 -84.8000 70 hurdat_atl main 195 195 O_____________ hurdat_atl AL041901 27.4000 -84.8000 HU 70 1 5 275
1901214N33322 1901 23 NA GM NOT_NAMED 1901-08-12 21:00:00 TS 27.4499 -85.0999 main 223 220 P_____________ AL041901 27.4499 -85.0999 HU 72 1 5 281
1901214N33322 1901 23 NA GM NOT_NAMED 1901-08-13 00:00:00 TS 27.5000 -85.4000 75 hurdat_atl main 245 245 O_____________ hurdat_atl AL041901 27.5000 -85.4000 HU 75 1 5 276
1901214N33322 1901 23 NA GM NOT_NAMED 1901-08-13 03:00:00 TS 27.5074 -85.6926 main 247 247 P_____________ AL041901 27.5074 -85.6926 HU 77 1 5 270
1901214N33322 1901 23 NA GM NOT_NAMED 1901-08-13 06:00:00 TS 27.5000 -86.0000 80 hurdat_atl main 252 252 O_____________ hurdat_atl AL041901 27.5000 -86.0000 HU 80 1 6 268
1901214N33322 1901 23 NA GM NOT_NAMED 1901-08-13 09:00:00 TS 27.4923 -86.3276 main 260 260 P_____________ AL041901 27.4923 -86.3276 HU 80 1 6 270
1901214N33322 1901 23 NA GM NOT_NAMED 1901-08-13 12:00:00 TS 27.5000 -86.7000 80 hurdat_atl main 276 257 O_____________ hurdat_atl AL041901 27.5000 -86.7000 HU 80 1 7 273
1901214N33322 1901 23 NA GM NOT_NAMED 1901-08-13 15:00:00 TS 27.5273 -87.1202 main 257 214 P_____________ AL041901 27.5273 -87.1202 HU 80 1 8 277
1901214N33322 1901 23 NA GM NOT_NAMED 1901-08-13 18:00:00 TS 27.6000 -87.6000 80 hurdat_atl main 214 174 O_____________ hurdat_atl AL041901 27.6000 -87.6000 HU 80 1 10 282
1901214N33322 1901 23 NA GM NOT_NAMED 1901-08-13 21:00:00 TS 27.7278 -88.1723 main 169 128 P_____________ AL041901 27.7278 -88.1723 HU 80 1 10 287
1901214N33322 1901 23 NA GM NOT_NAMED 1901-08-14 00:00:00 TS 27.9000 -88.7000 80 hurdat_atl main 128 100 O_____________ hurdat_atl AL041901 27.9000 -88.7000 HU 80 1 9 295
1901214N33322 1901 23 NA GM NOT_NAMED 1901-08-14 03:00:00 TS 28.0922 -89.0526 main 100 78 P_____________ AL041901 28.0922 -89.0526 HU 80 1 7 307
1901214N33322 1901 23 NA GM NOT_NAMED 1901-08-14 06:00:00 TS 28.3000 -89.3000 80 hurdat_atl main 80 67 O_____________ hurdat_atl AL041901 28.3000 -89.3000 HU 80 1 6 314
1901214N33322 1901 23 NA GM NOT_NAMED 1901-08-14 09:00:00 TS 28.5000 -89.5375 main 67 53 P_____________ AL041901 28.5000 -89.5375 HU 77 1 5 319
1901214N33322 1901 23 NA GM NOT_NAMED 1901-08-14 12:00:00 TS 28.7000 -89.7000 75 hurdat_atl main 53 36 O_____________ hurdat_atl AL041901 28.7000 -89.7000 HU 75 1 5 328
1901214N33322 1901 23 NA GM NOT_NAMED 1901-08-14 15:00:00 TS 28.8999 -89.8215 main 36 22 P_____________ AL041901 28.8999 -89.8215 HU 75 1 4 348
1901214N33322 1901 23 NA GM NOT_NAMED 1901-08-14 18:00:00 TS 29.1000 -89.8000 75 hurdat_atl main 22 0 O_____________ hurdat_atl AL041901 29.1000 -89.8000 HU 75 1 4 26
1901214N33322 1901 23 NA GM NOT_NAMED 1901-08-14 21:00:00 TS 29.3000 -89.6000 75 hurdat_atl main 0 0 O_____________ hurdat_atl AL041901 29.3000 -89.6000 L HU 75 1 4 41
1901214N33322 1901 23 NA GM NOT_NAMED 1901-08-15 00:00:00 TS 29.4000 -89.5000 75 hurdat_atl main 9 9 O_____________ hurdat_atl AL041901 29.4000 -89.5000 HU 75 1 3 42
1901214N33322 1901 23 NA GM NOT_NAMED 1901-08-15 03:00:00 TS 29.5398 -89.3535 main 9 9 P_____________ AL041901 29.5398 -89.3535 HU 75 1 4 41
1901214N33322 1901 23 NA GM NOT_NAMED 1901-08-15 06:00:00 TS 29.7000 -89.2000 75 hurdat_atl main 14 9 O_____________ hurdat_atl AL041901 29.7000 -89.2000 HU 75 1 4 37
1901214N33322 1901 23 NA GM NOT_NAMED 1901-08-15 09:00:00 TS 29.8351 -89.0959 main 19 19 P_____________ AL041901 29.8351 -89.0959 HU 75 1 3 30
1901214N33322 1901 23 NA GM NOT_NAMED 1901-08-15 12:00:00 TS 30.0000 -89.0000 75 hurdat_atl main 30 22 O_____________ hurdat_atl AL041901 30.0000 -89.0000 HU 75 1 4 21
1901214N33322 1901 23 NA GM NOT_NAMED 1901-08-15 15:00:00 TS 30.2192 -88.9238 main 22 0 P_____________ AL041901 30.2192 -88.9238 HU 75 1 5 23
1901214N33322 1901 23 NA GM NOT_NAMED 1901-08-15 17:00:00 TS 30.4000 -88.8000 75 hurdat_atl main 0 0 O_____________ hurdat_atl AL041901 30.4000 -88.8000 L HU 75 1 7 34
1901214N33322 1901 23 NA NA NOT_NAMED 1901-08-15 18:00:00 TS 30.5000 -88.7000 70 973 hurdat_atl main 0 0 O_____________ hurdat_atl AL041901 30.5000 -88.7000 HU 70 973 1 7 39
1901214N33322 1901 23 NA NA NOT_NAMED 1901-08-15 21:00:00 TS 30.7635 -88.4609 main 0 0 P_____________ AL041901 30.7635 -88.4609 HU 65 1 6 34
1901214N33322 1901 23 NA NA NOT_NAMED 1901-08-16 00:00:00 TS 31.0000 -88.3000 60 hurdat_atl main 0 0 O_____________ hurdat_atl AL041901 31.0000 -88.3000 TS 60 0 5 27
1901214N33322 1901 23 NA NA NOT_NAMED 1901-08-16 03:00:00 TS 31.2500 -88.1774 main 0 0 P_____________ AL041901 31.2500 -88.1774 TS 52 0 5 19
1901214N33322 1901 23 NA NA NOT_NAMED 1901-08-16 06:00:00 TS 31.5000 -88.1000 45 hurdat_atl main 0 0 O_____________ hurdat_atl AL041901 31.5000 -88.1000 TS 45 0 5 20
1901214N33322 1901 23 NA NA NOT_NAMED 1901-08-16 09:00:00 TS 31.7124 -87.9832 main 0 0 P_____________ AL041901 31.7124 -87.9832 TS 42 0 5 10
1901214N33322 1901 23 NA NA NOT_NAMED 1901-08-16 12:00:00 TS 32.0000 -88.0000 40 hurdat_atl main 0 0 O_____________ hurdat_atl AL041901 32.0000 -88.0000 TS 40 0 8 341
1901214N33322 1901 23 NA NA NOT_NAMED 1901-08-16 15:00:00 TS 32.4626 -88.2820 main 0 0 P_____________ AL041901 32.4626 -88.2820 TS 37 0 12 329
1901214N33322 1901 23 NA NA NOT_NAMED 1901-08-16 18:00:00 TS 33.0000 -88.7000 35 hurdat_atl main 0 0 O_____________ hurdat_atl AL041901 33.0000 -88.7000 TS 35 0 13 326
1901214N33322 1901 23 NA NA NOT_NAMED 1901-08-16 21:00:00 TS 33.5001 -89.1149 main 0 0 P_____________ AL041901 33.5001 -89.1149 TS 32 -1 12 326
1901214N33322 1901 23 NA NA NOT_NAMED 1901-08-17 00:00:00 ET 34.0000 -89.5000 30 hurdat_atl main 0 0 O_____________ hurdat_atl AL041901 34.0000 -89.5000 EX 30 -4 11 329
1901214N33322 1901 23 NA NA NOT_NAMED 1901-08-17 03:00:00 ET 34.4774 -89.8174 main 0 0 P_____________ AL041901 34.4774 -89.8174 EX 30 -4 11 338
1901214N33322 1901 23 NA NA NOT_NAMED 1901-08-17 06:00:00 ET 35.0000 -90.0000 30 hurdat_atl main 0 0 O_____________ hurdat_atl AL041901 35.0000 -90.0000 EX 30 -4 12 351
1901214N33322 1901 23 NA NA NOT_NAMED 1901-08-17 09:00:00 ET 35.6648 -90.0328 main 0 0 P_____________ AL041901 35.6648 -90.0328 EX 27 -4 13 4
1901214N33322 1901 23 NA NA NOT_NAMED 1901-08-17 12:00:00 ET 36.3000 -89.9000 25 hurdat_atl main 0 0 O_____________ hurdat_atl AL041901 36.3000 -89.9000 EX 25 -4 11 17
1901214N33322 1901 23 NA NA NOT_NAMED 1901-08-17 15:00:00 ET 36.7451 -89.6377 main 0 0 P_____________ AL041901 36.7451 -89.6377 EX 25 -4 9 31
1901214N33322 1901 23 NA NA NOT_NAMED 1901-08-17 18:00:00 ET 37.1000 -89.3000 25 hurdat_atl main 0 0 O_____________ hurdat_atl AL041901 37.1000 -89.3000 EX 25 -4 9 34
1901214N33322 1901 23 NA NA NOT_NAMED 1901-08-17 21:00:00 ET 37.4647 -89.0219 main 0 0 P_____________ AL041901 37.4647 -89.0219 EX 25 -4 8 34
1901214N33322 1901 23 NA NA NOT_NAMED 1901-08-18 00:00:00 ET 37.8000 -88.7000 25 hurdat_atl main 0 0 O_____________ hurdat_atl AL041901 37.8000 -88.7000 EX 25 -4 9 42
1901214N33322 1901 23 NA NA NOT_NAMED 1901-08-18 03:00:00 ET 38.1075 -88.2797 main 0 0 P_____________ AL041901 38.1075 -88.2797 EX 25 -4 9 50
1901214N33322 1901 23 NA NA NOT_NAMED 1901-08-18 06:00:00 ET 38.4000 -87.8000 25 hurdat_atl main 0 0 O_____________ hurdat_atl AL041901 38.4000 -87.8000 EX 25 -4 9 52
1901214N33322 1901 23 NA NA NOT_NAMED 1901-08-18 09:00:00 ET 38.6845 -87.3364 main 0 0 P_____________ AL041901 38.6845 -87.3364 EX 25 -4 10 52
1901214N33322 1901 23 NA NA NOT_NAMED 1901-08-18 12:00:00 ET 39.0000 -86.8000 25 hurdat_atl main 0 0 O_____________ hurdat_atl AL041901 39.0000 -86.8000 EX 25 -4 12 53
1901214N33322 1901 23 NA NA NOT_NAMED 1901-08-18 15:00:00 ET 39.3812 -86.1399 main 0 0 P_____________ AL041901 39.3812 -86.1399 EX 25 -4 13 54
1901214N33322 1901 23 NA NA NOT_NAMED 1901-08-18 18:00:00 ET 39.8000 -85.4000 25 hurdat_atl main 0 O_____________ hurdat_atl AL041901 39.8000 -85.4000 EX 25 -4 14 54

About IBTrACS Database

This database is a web-friendly format of International Best Track Archive for Climate Stewardship (IBTrACS), a global best track data archive curated by NOAA dating back to 1842.

Updated: 2021-10-21